WARNING - Change wsUserSettings.php: $SITE["topfolder"] from : weather28m/ to: ./
Welkom op onze website -
Gegevens meteorieten voor 2019 onder zon aarde ruimte


Webcam zuid Meer informatie Webcam zuid


Webcam noord Meer informatie Webcam noord


Onweer radar Meer informatie blitzortung!


Regen radar Meer informatie rain snow radar


Bezoek onze andere website:

Template documentation
and downloads

Onze andere website


U vindt ons ook hier:

Het Weer Aktueel

UK Metoffice

European Weather Network

WeatherCloud

Weather Underground

Austria Weather Network

AWEKAS

Citizen Weather Observer Program (CWOP)

HAMweather, WeatherForYou, PWS Weather

Wetterpage 24

Roosendaal op internet

VWKWEB

RadioZuidWestFM



Het weer levert geen direct gevaar op.    Er zijn geen waarschuwingen afgegeven.

METAR rapporten vliegvelden

   
EHWO - Bergen op Zoom
Gewijzigd: 20-05-2019 05:34
Nevel, Bewolking  
Nevel, Bewolking  
   Wind: Noorden 5.6 km/h
Wind: Noorden 5.6 km/h
Temperatuur: 11°C
Dauwpunt: 11°C
Vochtigheid: 100%
Barometer: 1007 hPa
Bewolking: Bewolking
Zicht: 3 km
Bewolking: Gedeeltelijk bewolkt 200 ft,
Grotendeels bewolkt 400 ft,
Bewolking 500 ft
EHWO 200334Z AUTO 36003KT 300V040 2700 BR SCT002 BKN004 OVC005 11/11 Q1007 AMB
EHWO - Woensdrecht
Gewijzigd: 20-05-2019 05:34
Nevel, Bewolking  
Nevel, Bewolking  
   Wind: Noorden 5.6 km/h
Wind: Noorden 5.6 km/h
Temperatuur: 11°C
Dauwpunt: 11°C
Vochtigheid: 100%
Barometer: 1007 hPa
Bewolking: Bewolking
Zicht: 3 km
Bewolking: Gedeeltelijk bewolkt 200 ft,
Grotendeels bewolkt 400 ft,
Bewolking 500 ft
EHWO 200334Z AUTO 36003KT 300V040 2700 BR SCT002 BKN004 OVC005 11/11 Q1007 AMB
EHWO - Steenbergen
Gewijzigd: 20-05-2019 05:34
Nevel, Bewolking  
Nevel, Bewolking  
   Wind: Noorden 5.6 km/h
Wind: Noorden 5.6 km/h
Temperatuur: 11°C
Dauwpunt: 11°C
Vochtigheid: 100%
Barometer: 1007 hPa
Bewolking: Bewolking
Zicht: 3 km
Bewolking: Gedeeltelijk bewolkt 200 ft,
Grotendeels bewolkt 400 ft,
Bewolking 500 ft
EHWO 200334Z AUTO 36003KT 300V040 2700 BR SCT002 BKN004 OVC005 11/11 Q1007 AMB
EHWO - Oud-Gastel
Gewijzigd: 20-05-2019 05:34
Nevel, Bewolking  
Nevel, Bewolking  
   Wind: Noorden 5.6 km/h
Wind: Noorden 5.6 km/h
Temperatuur: 11°C
Dauwpunt: 11°C
Vochtigheid: 100%
Barometer: 1007 hPa
Bewolking: Bewolking
Zicht: 3 km
Bewolking: Gedeeltelijk bewolkt 200 ft,
Grotendeels bewolkt 400 ft,
Bewolking 500 ft
EHWO 200334Z AUTO 36003KT 300V040 2700 BR SCT002 BKN004 OVC005 11/11 Q1007 AMB
EHWO - Oudenbosch
Gewijzigd: 20-05-2019 05:34
Nevel, Bewolking  
Nevel, Bewolking  
   Wind: Noorden 5.6 km/h
Wind: Noorden 5.6 km/h
Temperatuur: 11°C
Dauwpunt: 11°C
Vochtigheid: 100%
Barometer: 1007 hPa
Bewolking: Bewolking
Zicht: 3 km
Bewolking: Gedeeltelijk bewolkt 200 ft,
Grotendeels bewolkt 400 ft,
Bewolking 500 ft
EHWO 200334Z AUTO 36003KT 300V040 2700 BR SCT002 BKN004 OVC005 11/11 Q1007 AMB
EHWO - Rucphen
Gewijzigd: 20-05-2019 05:34
Nevel, Bewolking  
Nevel, Bewolking  
   Wind: Noorden 5.6 km/h
Wind: Noorden 5.6 km/h
Temperatuur: 11°C
Dauwpunt: 11°C
Vochtigheid: 100%
Barometer: 1007 hPa
Bewolking: Bewolking
Zicht: 3 km
Bewolking: Gedeeltelijk bewolkt 200 ft,
Grotendeels bewolkt 400 ft,
Bewolking 500 ft
EHWO 200334Z AUTO 36003KT 300V040 2700 BR SCT002 BKN004 OVC005 11/11 Q1007 AMB
EHWO - Bergen op Zoom
Gewijzigd: 20-05-2019 05:34
Nevel, Bewolking  
Nevel, Bewolking  
   Wind: Noorden 5.6 km/h
Wind: Noorden 5.6 km/h
Temperatuur: 11°C
Dauwpunt: 11°C
Vochtigheid: 100%
Barometer: 1007 hPa
Bewolking: Bewolking
Zicht: 3 km
Bewolking: Gedeeltelijk bewolkt 200 ft,
Grotendeels bewolkt 400 ft,
Bewolking 500 ft
EHWO 200334Z AUTO 36003KT 300V040 2700 BR SCT002 BKN004 OVC005 11/11 Q1007 AMB
EHWO - Fijnaart
Gewijzigd: 20-05-2019 05:34
Nevel, Bewolking  
Nevel, Bewolking  
   Wind: Noorden 5.6 km/h
Wind: Noorden 5.6 km/h
Temperatuur: 11°C
Dauwpunt: 11°C
Vochtigheid: 100%
Barometer: 1007 hPa
Bewolking: Bewolking
Zicht: 3 km
Bewolking: Gedeeltelijk bewolkt 200 ft,
Grotendeels bewolkt 400 ft,
Bewolking 500 ft
EHWO 200334Z AUTO 36003KT 300V040 2700 BR SCT002 BKN004 OVC005 11/11 Q1007 AMB
EHWO - Ossendrecht
Gewijzigd: 20-05-2019 05:34
Nevel, Bewolking  
Nevel, Bewolking  
   Wind: Noorden 5.6 km/h
Wind: Noorden 5.6 km/h
Temperatuur: 11°C
Dauwpunt: 11°C
Vochtigheid: 100%
Barometer: 1007 hPa
Bewolking: Bewolking
Zicht: 3 km
Bewolking: Gedeeltelijk bewolkt 200 ft,
Grotendeels bewolkt 400 ft,
Bewolking 500 ft
EHWO 200334Z AUTO 36003KT 300V040 2700 BR SCT002 BKN004 OVC005 11/11 Q1007 AMB

Script ontwikkeld door  Saratoga-weather.org Aangepast voor de template door  Weerstation Leuven

Apparatuur in gebruik:

Weerstation
Davis VP2

Weerprogramma
Meteobridge

Weercomputer
Shuttle

Webleverancier
WeservIT

Davis VP2

Meteobridge

Shuttle

WeservIT